createdAt,value
2019-05-19T00:00:47.561Z,11.60
2019-05-19T00:03:16.837Z,11.60
2019-05-19T00:05:45.634Z,11.60
2019-05-19T00:08:14.773Z,11.60
2019-05-19T00:10:44.268Z,11.60
2019-05-19T00:13:13.596Z,11.60
2019-05-19T00:15:42.467Z,11.50
2019-05-19T00:18:11.628Z,11.50
2019-05-19T00:20:40.494Z,11.50
2019-05-19T00:23:09.590Z,11.50
2019-05-19T00:25:38.657Z,11.50
2019-05-19T00:28:07.686Z,11.50
2019-05-19T00:30:36.822Z,11.40
2019-05-19T00:33:05.767Z,11.50
2019-05-19T00:35:34.971Z,11.40
2019-05-19T00:38:04.215Z,11.30
2019-05-19T00:40:33.330Z,11.30
2019-05-19T00:43:02.717Z,11.30
2019-05-19T00:45:31.808Z,11.30
2019-05-19T00:48:00.831Z,11.30
2019-05-19T00:50:30.311Z,11.30
2019-05-19T00:52:59.425Z,11.20
2019-05-19T00:55:30.134Z,11.30
2019-05-19T00:58:01.692Z,11.20
2019-05-19T01:00:30.629Z,11.20
2019-05-19T01:03:00.099Z,11.20
2019-05-19T01:05:28.885Z,11.20
2019-05-19T01:07:58.582Z,11.30
2019-05-19T01:10:28.245Z,11.30
2019-05-19T01:12:58.339Z,11.20
2019-05-19T01:15:27.310Z,11.20
2019-05-19T01:17:56.718Z,11.10
2019-05-19T01:20:25.834Z,11.10
2019-05-19T01:22:54.846Z,11.10
2019-05-19T01:25:23.968Z,11.20
2019-05-19T01:27:53.234Z,11.20
2019-05-19T01:30:22.386Z,11.20
2019-05-19T01:32:51.640Z,11.20
2019-05-19T01:35:20.742Z,11.20
2019-05-19T01:37:49.526Z,11.10
2019-05-19T01:40:18.704Z,11.10
2019-05-19T01:42:47.953Z,11.00
2019-05-19T01:45:17.024Z,11.10
2019-05-19T01:47:46.314Z,11.00
2019-05-19T01:50:18.270Z,11.10
2019-05-19T01:52:48.052Z,11.00
2019-05-19T01:55:17.083Z,11.00
2019-05-19T01:57:46.553Z,11.10
2019-05-19T02:00:15.710Z,11.10
2019-05-19T02:02:45.135Z,11.10
2019-05-19T02:05:15.005Z,11.00
2019-05-19T02:07:44.358Z,11.00
2019-05-19T02:10:15.781Z,10.90
2019-05-19T02:12:44.810Z,10.90
2019-05-19T02:15:14.074Z,10.90
2019-05-19T02:17:43.517Z,10.90
2019-05-19T02:20:13.006Z,10.90
2019-05-19T02:22:42.196Z,10.90
2019-05-19T02:25:11.467Z,10.90
2019-05-19T02:27:40.515Z,10.90
2019-05-19T02:30:10.470Z,10.90
2019-05-19T02:32:39.635Z,10.80
2019-05-19T02:35:08.674Z,10.90
2019-05-19T02:37:37.732Z,10.90
2019-05-19T02:40:07.208Z,10.90
2019-05-19T02:42:39.606Z,10.90
2019-05-19T02:45:09.170Z,10.90
2019-05-19T02:47:40.470Z,10.90
2019-05-19T02:50:09.601Z,10.90
2019-05-19T02:52:40.803Z,10.80
2019-05-19T02:55:10.223Z,10.90
2019-05-19T02:57:41.076Z,10.90
2019-05-19T03:00:10.947Z,10.90
2019-05-19T03:02:40.071Z,10.90
2019-05-19T03:05:09.679Z,10.90
2019-05-19T03:07:39.272Z,10.90
2019-05-19T03:10:08.634Z,10.90
2019-05-19T03:12:38.016Z,10.80
2019-05-19T03:15:07.774Z,10.80
2019-05-19T03:17:37.038Z,10.80
2019-05-19T03:20:06.439Z,10.90
2019-05-19T03:22:36.091Z,10.80
2019-05-19T03:25:05.351Z,10.80
2019-05-19T03:27:34.565Z,10.80
2019-05-19T03:30:29.120Z,10.80
2019-05-19T03:33:00.746Z,10.80
2019-05-19T03:35:30.147Z,10.80
2019-05-19T03:37:58.941Z,10.80
2019-05-19T03:40:28.887Z,10.80
2019-05-19T03:42:57.692Z,10.80
2019-05-19T03:45:26.834Z,10.80
2019-05-19T03:47:55.953Z,10.80
2019-05-19T03:50:24.815Z,10.80
2019-05-19T03:52:54.233Z,10.80
2019-05-19T03:55:23.867Z,10.80
2019-05-19T03:57:53.019Z,10.80
2019-05-19T04:00:22.180Z,10.80
2019-05-19T04:02:51.818Z,10.80
2019-05-19T04:05:21.487Z,10.80
2019-05-19T04:07:51.298Z,10.90
2019-05-19T04:10:20.865Z,10.80
2019-05-19T04:12:49.916Z,10.90
2019-05-19T04:15:19.488Z,10.90
2019-05-19T04:17:48.989Z,10.90
2019-05-19T04:20:18.182Z,10.90
2019-05-19T04:22:47.795Z,10.90
2019-05-19T04:25:16.966Z,10.90
2019-05-19T04:27:46.751Z,11.00
2019-05-19T04:30:16.989Z,11.00
2019-05-19T04:32:46.563Z,11.00
2019-05-19T04:35:15.830Z,11.00
2019-05-19T04:37:45.316Z,11.00
2019-05-19T04:40:14.716Z,11.00
2019-05-19T04:42:44.276Z,11.10
2019-05-19T04:45:13.197Z,11.10
2019-05-19T04:47:42.299Z,11.10
2019-05-19T04:50:11.846Z,11.20
2019-05-19T04:52:40.919Z,11.20
2019-05-19T04:55:09.872Z,11.20
2019-05-19T04:57:38.917Z,11.20
2019-05-19T05:00:08.325Z,11.30
2019-05-19T05:02:38.375Z,11.30
2019-05-19T05:05:07.830Z,11.40
2019-05-19T05:07:36.950Z,11.50
2019-05-19T05:10:07.552Z,11.50
2019-05-19T05:12:36.458Z,11.60
2019-05-19T05:15:05.786Z,11.80
2019-05-19T05:17:34.905Z,11.80
2019-05-19T05:20:04.353Z,12.00
2019-05-19T05:22:33.450Z,12.10
2019-05-19T05:25:02.314Z,12.30
2019-05-19T05:27:32.148Z,12.60
2019-05-19T05:30:01.501Z,12.80
2019-05-19T05:32:30.964Z,13.00
2019-05-19T05:34:59.830Z,13.00
2019-05-19T05:37:28.888Z,13.00
2019-05-19T05:39:58.442Z,13.10
2019-05-19T05:42:27.553Z,13.10
2019-05-19T05:44:56.971Z,13.10
2019-05-19T05:47:25.918Z,13.10
2019-05-19T05:49:54.747Z,13.10
2019-05-19T05:52:37.619Z,13.20
2019-05-19T05:54:55.270Z,13.20
2019-05-19T05:57:24.582Z,13.20
2019-05-19T05:59:53.678Z,13.20
2019-05-19T06:02:23.174Z,13.20
2019-05-19T06:04:52.228Z,13.10
2019-05-19T06:07:21.524Z,13.10
2019-05-19T06:09:50.690Z,13.10
2019-05-19T06:12:20.174Z,13.10
2019-05-19T06:14:49.289Z,13.10
2019-05-19T06:17:18.339Z,13.10
2019-05-19T06:19:47.636Z,13.00
2019-05-19T06:22:16.721Z,12.90
2019-05-19T06:24:45.778Z,13.00
2019-05-19T06:27:15.278Z,13.00
2019-05-19T06:29:45.029Z,13.00
2019-05-19T06:32:21.365Z,13.00
2019-05-19T06:34:50.453Z,13.00
2019-05-19T06:37:19.258Z,13.00
2019-05-19T06:39:48.621Z,13.10
2019-05-19T06:42:17.866Z,13.20
2019-05-19T06:44:47.035Z,13.30
2019-05-19T06:47:16.052Z,13.40
2019-05-19T06:49:44.892Z,13.50
2019-05-19T06:52:14.226Z,13.70
2019-05-19T06:54:43.317Z,13.80
2019-05-19T06:57:12.723Z,14.00
2019-05-19T06:59:42.109Z,14.20
2019-05-19T07:02:11.326Z,14.20
2019-05-19T07:04:40.711Z,14.30
2019-05-19T07:07:10.095Z,14.30
2019-05-19T07:09:39.802Z,14.50
2019-05-19T07:12:09.611Z,14.60
2019-05-19T07:14:39.136Z,14.80
2019-05-19T07:17:08.463Z,14.90
2019-05-19T07:19:37.830Z,14.90
2019-05-19T07:22:06.956Z,15.00
2019-05-19T07:24:36.074Z,15.20
2019-05-19T07:27:05.515Z,15.30
2019-05-19T07:29:35.285Z,15.50
2019-05-19T07:32:04.529Z,15.70
2019-05-19T07:34:33.720Z,16.00
2019-05-19T07:37:02.845Z,16.10
2019-05-19T07:39:31.967Z,16.30
2019-05-19T07:42:01.267Z,16.80
2019-05-19T07:44:30.332Z,17.10
2019-05-19T07:46:59.747Z,17.20
2019-05-19T07:49:29.287Z,17.30
2019-05-19T07:51:58.852Z,17.70
2019-05-19T07:54:28.366Z,18.10
2019-05-19T07:56:57.665Z,18.20
2019-05-19T07:59:26.795Z,18.10
2019-05-19T08:01:55.619Z,18.10
2019-05-19T08:04:25.064Z,17.70
2019-05-19T08:06:54.647Z,17.30
2019-05-19T08:09:24.282Z,17.20
2019-05-19T08:11:53.406Z,17.10
2019-05-19T08:14:22.253Z,17.20
2019-05-19T08:16:51.781Z,17.60
2019-05-19T08:19:20.574Z,17.40
2019-05-19T08:21:50.055Z,17.30
2019-05-19T08:24:19.137Z,17.50
2019-05-19T08:26:48.418Z,17.30
2019-05-19T08:29:17.978Z,17.40
2019-05-19T08:31:47.017Z,17.50
2019-05-19T08:34:16.050Z,17.50
2019-05-19T08:36:45.441Z,16.90
2019-05-19T08:39:15.423Z,16.90
2019-05-19T08:41:44.734Z,17.10
2019-05-19T08:44:13.883Z,17.50
2019-05-19T08:46:42.974Z,17.90
2019-05-19T08:49:12.383Z,18.00
2019-05-19T08:51:41.933Z,18.10
2019-05-19T08:54:14.906Z,18.30
2019-05-19T08:56:42.602Z,18.20
2019-05-19T08:59:12.171Z,17.90
2019-05-19T09:01:41.278Z,17.80
2019-05-19T09:04:11.001Z,18.00
2019-05-19T09:06:40.088Z,18.10
2019-05-19T09:09:09.271Z,18.00
2019-05-19T09:11:38.676Z,18.00
2019-05-19T09:14:07.953Z,18.30
2019-05-19T09:16:37.501Z,18.70
2019-05-19T09:19:07.079Z,18.60
2019-05-19T09:21:36.825Z,18.70
2019-05-19T09:24:05.751Z,18.80
2019-05-19T09:26:34.842Z,18.90
2019-05-19T09:29:03.946Z,18.90
2019-05-19T09:31:33.664Z,18.80
2019-05-19T09:34:02.591Z,18.10
2019-05-19T09:36:31.555Z,18.10
2019-05-19T09:39:00.716Z,18.30
2019-05-19T09:41:29.762Z,18.00
2019-05-19T09:43:58.854Z,18.20
2019-05-19T09:46:28.179Z,18.10
2019-05-19T09:49:15.205Z,18.40
2019-05-19T09:51:44.275Z,18.50
2019-05-19T09:54:13.821Z,18.70
2019-05-19T09:56:42.838Z,18.90
2019-05-19T09:59:11.864Z,19.00
2019-05-19T10:01:40.962Z,19.10
2019-05-19T10:04:09.743Z,19.10
2019-05-19T10:06:38.864Z,19.30
2019-05-19T10:09:11.002Z,19.50
2019-05-19T10:12:02.050Z,19.50
2019-05-19T10:14:30.909Z,19.40
2019-05-19T10:17:00.173Z,19.50
2019-05-19T10:19:29.491Z,19.20
2019-05-19T10:21:58.709Z,18.70
2019-05-19T10:24:27.588Z,18.60
2019-05-19T10:26:57.250Z,18.50
2019-05-19T10:29:26.502Z,18.80
2019-05-19T10:31:56.042Z,19.00
2019-05-19T10:34:25.064Z,19.40
2019-05-19T10:36:54.333Z,19.90
2019-05-19T10:39:23.808Z,20.30
2019-05-19T10:41:53.022Z,20.30
2019-05-19T10:44:22.078Z,20.30
2019-05-19T10:46:51.319Z,20.10
2019-05-19T10:49:20.975Z,20.10
2019-05-19T10:51:50.017Z,20.00
2019-05-19T10:54:19.299Z,20.10
2019-05-19T10:56:48.241Z,20.20
2019-05-19T10:59:17.598Z,20.40
2019-05-19T11:01:47.087Z,20.30
2019-05-19T11:04:16.149Z,20.10
2019-05-19T11:06:45.284Z,20.30
2019-05-19T11:09:14.410Z,20.40
2019-05-19T11:11:43.567Z,20.30
2019-05-19T11:14:12.923Z,20.10
2019-05-19T11:16:41.789Z,20.10
2019-05-19T11:19:11.375Z,20.20
2019-05-19T11:21:41.220Z,20.70
2019-05-19T11:24:10.798Z,20.80
2019-05-19T11:26:39.899Z,20.90
2019-05-19T11:29:08.767Z,20.80
2019-05-19T11:31:37.636Z,20.60
2019-05-19T11:34:06.873Z,20.70
2019-05-19T11:36:35.679Z,20.60
2019-05-19T11:39:06.529Z,21.00
2019-05-19T11:41:35.814Z,21.10
2019-05-19T11:44:05.494Z,20.20
2019-05-19T11:46:34.850Z,20.10
2019-05-19T11:49:04.249Z,20.60
2019-05-19T11:51:33.626Z,20.20
2019-05-19T11:54:02.788Z,20.00
2019-05-19T11:56:32.474Z,19.90
2019-05-19T11:59:02.675Z,19.90
2019-05-19T12:01:32.297Z,19.40
2019-05-19T12:04:01.721Z,18.80
2019-05-19T12:06:39.573Z,19.40
2019-05-19T12:09:01.916Z,19.40
2019-05-19T12:11:30.737Z,19.40
2019-05-19T12:14:00.510Z,19.10
2019-05-19T12:16:29.636Z,18.80
2019-05-19T12:18:59.043Z,18.80
2019-05-19T12:21:28.222Z,18.70
2019-05-19T12:23:57.726Z,18.60
2019-05-19T12:26:26.766Z,18.50
2019-05-19T12:28:56.346Z,18.50
2019-05-19T12:31:25.648Z,18.70
2019-05-19T12:33:54.578Z,18.70
2019-05-19T12:36:23.447Z,19.00
2019-05-19T12:38:52.899Z,18.80
2019-05-19T12:41:21.845Z,19.20
2019-05-19T12:43:51.119Z,19.50
2019-05-19T12:46:20.205Z,19.60
2019-05-19T12:48:49.581Z,20.00
2019-05-19T12:51:18.827Z,20.40
2019-05-19T12:53:48.369Z,20.30
2019-05-19T12:56:17.809Z,20.10
2019-05-19T12:58:47.336Z,19.80
2019-05-19T13:01:16.286Z,19.60
2019-05-19T13:03:45.550Z,19.60
2019-05-19T13:06:14.823Z,19.60
2019-05-19T13:08:44.718Z,19.30
2019-05-19T13:11:14.524Z,19.10
2019-05-19T13:13:43.623Z,18.80
2019-05-19T13:16:13.106Z,18.70
2019-05-19T13:18:42.199Z,18.50
2019-05-19T13:21:11.326Z,18.40
2019-05-19T13:23:41.083Z,18.30
2019-05-19T13:26:10.622Z,18.10
2019-05-19T13:28:39.997Z,18.00
2019-05-19T13:31:08.857Z,17.90
2019-05-19T13:33:38.227Z,17.90
2019-05-19T13:36:07.510Z,17.80
2019-05-19T13:38:36.534Z,17.80
2019-05-19T13:41:05.565Z,18.00
2019-05-19T13:43:34.354Z,18.30
2019-05-19T13:46:03.283Z,18.50
2019-05-19T13:48:32.666Z,18.90
2019-05-19T13:51:01.703Z,19.20
2019-05-19T13:53:31.446Z,19.80
2019-05-19T13:56:01.877Z,20.00
2019-05-19T13:58:31.149Z,19.50
2019-05-19T14:00:59.999Z,20.00
2019-05-19T14:03:29.099Z,20.40
2019-05-19T14:05:58.450Z,20.10
2019-05-19T14:08:28.057Z,20.30
2019-05-19T14:10:57.346Z,20.80
2019-05-19T14:13:26.457Z,20.80
2019-05-19T14:15:55.543Z,21.10
2019-05-19T14:18:24.642Z,20.80
2019-05-19T14:20:53.766Z,20.80
2019-05-19T14:23:22.994Z,21.10
2019-05-19T14:25:52.134Z,21.40
2019-05-19T14:28:21.327Z,21.60
2019-05-19T14:30:51.060Z,21.30
2019-05-19T14:33:20.829Z,21.20
2019-05-19T14:35:50.362Z,20.90
2019-05-19T14:38:19.483Z,20.70
2019-05-19T14:40:48.971Z,20.80
2019-05-19T14:43:19.038Z,20.80
2019-05-19T14:45:48.756Z,20.70
2019-05-19T14:48:18.286Z,20.60
2019-05-19T14:50:47.418Z,20.50
2019-05-19T14:53:16.773Z,20.50
2019-05-19T14:55:46.178Z,20.60
2019-05-19T14:58:15.214Z,20.70
2019-05-19T15:00:45.081Z,20.80
2019-05-19T15:03:14.102Z,20.70
2019-05-19T15:05:43.365Z,20.90
2019-05-19T15:08:12.749Z,20.70
2019-05-19T15:10:42.070Z,20.50
2019-05-19T15:13:11.122Z,20.20
2019-05-19T15:15:40.493Z,19.90
2019-05-19T15:18:10.324Z,19.50
2019-05-19T15:20:39.648Z,19.10
2019-05-19T15:23:08.463Z,18.80
2019-05-19T15:25:37.526Z,18.50
2019-05-19T15:28:06.542Z,18.30
2019-05-19T15:30:35.421Z,18.00
2019-05-19T15:33:04.895Z,17.90
2019-05-19T15:35:33.963Z,17.90
2019-05-19T15:38:03.034Z,17.80
2019-05-19T15:40:32.582Z,17.70
2019-05-19T15:43:02.110Z,17.80
2019-05-19T15:45:31.448Z,17.70
2019-05-19T15:48:00.813Z,17.80
2019-05-19T15:50:30.308Z,17.70
2019-05-19T15:52:59.190Z,17.60
2019-05-19T15:55:28.411Z,17.60
2019-05-19T15:57:58.037Z,17.60
2019-05-19T16:00:28.516Z,17.60
2019-05-19T16:02:58.247Z,17.60
2019-05-19T16:05:27.846Z,17.60
2019-05-19T16:07:57.359Z,17.60
2019-05-19T16:10:26.713Z,17.70
2019-05-19T16:12:56.006Z,17.90
2019-05-19T16:15:25.178Z,17.90
2019-05-19T16:17:54.473Z,17.90
2019-05-19T16:20:23.242Z,18.00
2019-05-19T16:22:52.779Z,18.00
2019-05-19T16:25:21.894Z,18.20
2019-05-19T16:27:51.237Z,18.40
2019-05-19T16:30:20.273Z,18.60
2019-05-19T16:32:49.410Z,18.70
2019-05-19T16:35:18.876Z,19.10
2019-05-19T16:37:47.974Z,19.50
2019-05-19T16:40:18.461Z,19.80
2019-05-19T16:42:47.754Z,20.00
2019-05-19T16:45:17.222Z,19.60
2019-05-19T16:47:46.495Z,19.20
2019-05-19T16:50:15.937Z,18.90
2019-05-19T16:52:44.990Z,19.00
2019-05-19T16:55:24.995Z,19.00
2019-05-19T16:57:54.290Z,19.00
2019-05-19T17:00:24.982Z,19.00
2019-05-19T17:02:54.877Z,19.00
2019-05-19T17:05:24.587Z,18.90
2019-05-19T17:07:53.669Z,18.90
2019-05-19T17:10:22.963Z,18.80
2019-05-19T17:12:52.341Z,18.70
2019-05-19T17:15:22.238Z,18.50
2019-05-19T17:17:51.804Z,18.50
2019-05-19T17:20:21.523Z,18.20
2019-05-19T17:22:50.398Z,17.70
2019-05-19T17:25:19.449Z,17.20
2019-05-19T17:27:48.590Z,16.60
2019-05-19T17:30:18.578Z,16.20
2019-05-19T17:32:47.830Z,15.60
2019-05-19T17:35:17.548Z,15.10
2019-05-19T17:37:47.225Z,14.70
2019-05-19T17:40:16.239Z,14.30
2019-05-19T17:42:45.578Z,14.00
2019-05-19T17:45:15.211Z,13.80
2019-05-19T17:47:44.337Z,13.70
2019-05-19T17:50:14.116Z,13.60
2019-05-19T17:52:43.616Z,13.60
2019-05-19T17:55:13.055Z,13.60
2019-05-19T17:57:43.671Z,13.50
2019-05-19T18:00:12.601Z,13.50
2019-05-19T18:02:41.747Z,13.40
2019-05-19T18:05:11.179Z,13.40
2019-05-19T18:07:40.490Z,13.40
2019-05-19T18:10:10.138Z,13.40
2019-05-19T18:12:39.427Z,13.40
2019-05-19T18:15:08.777Z,13.50
2019-05-19T18:17:38.090Z,13.40
2019-05-19T18:20:07.524Z,13.20
2019-05-19T18:22:36.793Z,13.10
2019-05-19T18:25:05.997Z,13.10
2019-05-19T18:27:35.201Z,13.10
2019-05-19T18:30:04.681Z,13.10
2019-05-19T18:32:34.110Z,13.00
2019-05-19T18:35:04.478Z,13.10
2019-05-19T18:37:34.038Z,13.00
2019-05-19T18:40:03.410Z,12.90
2019-05-19T18:42:32.534Z,12.90
2019-05-19T18:45:01.638Z,12.70
2019-05-19T18:47:30.686Z,12.70
2019-05-19T18:50:00.481Z,12.60
2019-05-19T18:52:29.613Z,12.60
2019-05-19T18:54:59.303Z,12.50
2019-05-19T18:57:28.351Z,12.50
2019-05-19T18:59:57.387Z,12.60
2019-05-19T19:02:26.350Z,12.60
2019-05-19T19:04:55.707Z,12.70
2019-05-19T19:07:44.241Z,12.70
2019-05-19T19:10:14.025Z,12.70
2019-05-19T19:12:43.449Z,12.70
2019-05-19T19:15:13.208Z,12.60
2019-05-19T19:17:42.501Z,12.60
2019-05-19T19:20:11.670Z,12.60
2019-05-19T19:22:40.798Z,12.60
2019-05-19T19:25:09.974Z,12.60
2019-05-19T19:27:39.598Z,12.60
2019-05-19T19:30:09.466Z,12.60
2019-05-19T19:32:38.627Z,12.60
2019-05-19T19:35:08.237Z,12.50
2019-05-19T19:37:37.325Z,12.60
2019-05-19T19:40:06.850Z,12.50
2019-05-19T19:42:36.537Z,12.50
2019-05-19T19:45:06.218Z,12.50
2019-05-19T19:47:35.508Z,12.50
2019-05-19T19:50:05.022Z,12.50
2019-05-19T19:52:34.121Z,12.50
2019-05-19T19:55:03.160Z,12.50
2019-05-19T19:57:32.478Z,12.50
2019-05-19T20:00:02.060Z,12.50
2019-05-19T20:02:31.944Z,12.50
2019-05-19T20:05:01.205Z,12.50
2019-05-19T20:07:30.498Z,12.40
2019-05-19T20:09:59.869Z,12.40
2019-05-19T20:12:29.282Z,12.40
2019-05-19T20:14:59.182Z,12.30
2019-05-19T20:17:28.577Z,12.40
2019-05-19T20:19:57.744Z,12.30
2019-05-19T20:22:26.989Z,12.30
2019-05-19T20:24:56.387Z,12.30
2019-05-19T20:27:25.529Z,12.30
2019-05-19T20:29:55.345Z,12.30
2019-05-19T20:32:24.659Z,12.30
2019-05-19T20:34:53.725Z,12.30
2019-05-19T20:37:22.519Z,12.30
2019-05-19T20:39:52.186Z,12.30
2019-05-19T20:42:21.021Z,12.30
2019-05-19T20:44:50.195Z,12.30
2019-05-19T20:47:19.382Z,12.20
2019-05-19T20:49:48.807Z,12.30
2019-05-19T20:52:17.874Z,12.20
2019-05-19T20:54:46.970Z,12.20
2019-05-19T20:57:16.266Z,12.20
2019-05-19T20:59:45.342Z,12.20
2019-05-19T21:02:14.814Z,12.20
2019-05-19T21:04:43.685Z,12.10
2019-05-19T21:07:12.490Z,12.20
2019-05-19T21:09:41.694Z,12.20
2019-05-19T21:12:11.454Z,12.30
2019-05-19T21:14:40.561Z,12.30
2019-05-19T21:17:09.807Z,12.20
2019-05-19T21:19:39.285Z,12.20
2019-05-19T21:22:08.662Z,12.20
2019-05-19T21:24:37.984Z,12.10
2019-05-19T21:27:07.489Z,12.10
2019-05-19T21:29:36.586Z,12.00
2019-05-19T21:32:05.886Z,12.00
2019-05-19T21:34:35.014Z,12.00
2019-05-19T21:37:03.908Z,12.00
2019-05-19T21:39:33.367Z,12.00
2019-05-19T21:42:02.407Z,12.00
2019-05-19T21:44:31.987Z,12.00
2019-05-19T21:47:00.843Z,12.00
2019-05-19T21:49:29.866Z,12.00
2019-05-19T21:51:58.992Z,11.90
2019-05-19T21:54:28.391Z,12.00
2019-05-19T21:56:57.688Z,11.90
2019-05-19T21:59:27.174Z,12.00
2019-05-19T22:01:56.069Z,12.00
2019-05-19T22:04:25.132Z,12.00
2019-05-19T22:07:02.113Z,12.10
2019-05-19T22:09:31.935Z,12.10
2019-05-19T22:12:00.746Z,12.00
2019-05-19T22:14:29.829Z,12.00
2019-05-19T22:16:58.963Z,12.10
2019-05-19T22:19:28.726Z,12.00
2019-05-19T22:21:57.849Z,12.10
2019-05-19T22:24:27.129Z,12.10
2019-05-19T22:26:56.550Z,12.10
2019-05-19T22:29:26.041Z,12.10
2019-05-19T22:31:55.136Z,12.10
2019-05-19T22:34:24.649Z,12.10
2019-05-19T22:36:53.972Z,12.10
2019-05-19T22:39:23.750Z,12.10
2019-05-19T22:41:52.788Z,12.10
2019-05-19T22:44:22.254Z,12.10
2019-05-19T22:46:51.145Z,12.00
2019-05-19T22:49:20.637Z,12.00
2019-05-19T22:51:49.682Z,12.00
2019-05-19T22:54:18.834Z,12.00
2019-05-19T22:56:47.883Z,11.90
2019-05-19T22:59:20.111Z,11.90
2019-05-19T23:01:51.730Z,11.90
2019-05-19T23:04:19.510Z,11.90
2019-05-19T23:06:48.615Z,11.90
2019-05-19T23:09:17.693Z,11.90
2019-05-19T23:11:47.138Z,11.90
2019-05-19T23:14:16.291Z,11.90
2019-05-19T23:16:45.391Z,11.90
2019-05-19T23:19:15.147Z,11.90
2019-05-19T23:21:44.023Z,12.00
2019-05-19T23:24:13.098Z,12.00
2019-05-19T23:26:42.613Z,11.90
2019-05-19T23:29:11.711Z,11.90
2019-05-19T23:31:40.704Z,11.90
2019-05-19T23:34:10.366Z,11.90
2019-05-19T23:36:39.309Z,11.80
2019-05-19T23:39:08.711Z,11.90
2019-05-19T23:41:37.781Z,11.80
2019-05-19T23:44:07.029Z,11.80
2019-05-19T23:46:36.113Z,11.80
2019-05-19T23:49:05.085Z,11.80
2019-05-19T23:51:33.949Z,11.80
2019-05-19T23:54:02.728Z,11.70
2019-05-19T23:56:31.753Z,11.70
2019-05-19T23:59:01.107Z,11.70
